sensor_id;sensor_type;location;lat;lon;timestamp;P1;durP1;ratioP1;P2;durP2;ratioP2
8544;SDS011;4310;51.054;6.994;2022-12-07T00:00:41;62.03;;;55.65;;
8544;SDS011;4310;51.054;6.994;2022-12-07T00:01:46;61.95;;;55.52;;
8544;SDS011;4310;51.054;6.994;2022-12-07T00:02:53;60.40;;;54.10;;
8544;SDS011;4310;51.054;6.994;2022-12-07T00:04:00;61.53;;;55.12;;
8544;SDS011;4310;51.054;6.994;2022-12-07T00:05:07;56.68;;;50.63;;
8544;SDS011;4310;51.054;6.994;2022-12-07T00:06:12;57.00;;;50.75;;
8544;SDS011;4310;51.054;6.994;2022-12-07T00:07:16;60.33;;;53.68;;
8544;SDS011;4310;51.054;6.994;2022-12-07T00:08:22;59.58;;;53.65;;
8544;SDS011;4310;51.054;6.994;2022-12-07T00:09:26;58.55;;;52.53;;
8544;SDS011;4310;51.054;6.994;2022-12-07T00:10:30;61.20;;;54.67;;
8544;SDS011;4310;51.054;6.994;2022-12-07T00:11:35;57.43;;;51.25;;
8544;SDS011;4310;51.054;6.994;2022-12-07T00:12:39;64.15;;;57.50;;
8544;SDS011;4310;51.054;6.994;2022-12-07T00:13:43;60.23;;;53.65;;
8544;SDS011;4310;51.054;6.994;2022-12-07T00:14:47;62.73;;;56.42;;
8544;SDS011;4310;51.054;6.994;2022-12-07T00:17:02;63.42;;;56.83;;
8544;SDS011;4310;51.054;6.994;2022-12-07T00:18:08;62.00;;;55.60;;
8544;SDS011;4310;51.054;6.994;2022-12-07T00:19:13;64.30;;;57.40;;
8544;SDS011;4310;51.054;6.994;2022-12-07T00:21:29;61.35;;;54.83;;
8544;SDS011;4310;51.054;6.994;2022-12-07T00:22:34;60.45;;;54.05;;
8544;SDS011;4310;51.054;6.994;2022-12-07T00:23:46;64.42;;;57.78;;
8544;SDS011;4310;51.054;6.994;2022-12-07T00:24:50;61.83;;;55.48;;
8544;SDS011;4310;51.054;6.994;2022-12-07T00:25:54;60.98;;;54.45;;
8544;SDS011;4310;51.054;6.994;2022-12-07T00:27:00;57.75;;;51.60;;
8544;SDS011;4310;51.054;6.994;2022-12-07T00:28:04;59.23;;;53.33;;
8544;SDS011;4310;51.054;6.994;2022-12-07T00:30:21;58.83;;;52.50;;
8544;SDS011;4310;51.054;6.994;2022-12-07T00:31:25;59.50;;;53.25;;
8544;SDS011;4310;51.054;6.994;2022-12-07T00:32:29;54.20;;;48.42;;
8544;SDS011;4310;51.054;6.994;2022-12-07T00:33:33;55.30;;;49.55;;
8544;SDS011;4310;51.054;6.994;2022-12-07T00:34:37;59.42;;;53.25;;
8544;SDS011;4310;51.054;6.994;2022-12-07T00:35:44;56.28;;;50.38;;
8544;SDS011;4310;51.054;6.994;2022-12-07T00:36:48;55.85;;;50.12;;
8544;SDS011;4310;51.054;6.994;2022-12-07T00:39:03;58.45;;;52.25;;
8544;SDS011;4310;51.054;6.994;2022-12-07T00:40:08;56.65;;;50.75;;
8544;SDS011;4310;51.054;6.994;2022-12-07T00:41:13;56.30;;;50.40;;
8544;SDS011;4310;51.054;6.994;2022-12-07T00:42:17;54.93;;;48.68;;
8544;SDS011;4310;51.054;6.994;2022-12-07T00:43:20;55.10;;;49.18;;
8544;SDS011;4310;51.054;6.994;2022-12-07T00:44:24;54.83;;;49.15;;
8544;SDS011;4310;51.054;6.994;2022-12-07T00:45:28;51.70;;;46.08;;
8544;SDS011;4310;51.054;6.994;2022-12-07T00:46:32;51.25;;;45.55;;
8544;SDS011;4310;51.054;6.994;2022-12-07T00:47:35;50.90;;;45.33;;
8544;SDS011;4310;51.054;6.994;2022-12-07T00:48:39;51.05;;;45.58;;
8544;SDS011;4310;51.054;6.994;2022-12-07T00:49:43;54.75;;;49.05;;
8544;SDS011;4310;51.054;6.994;2022-12-07T00:50:46;58.38;;;52.23;;
8544;SDS011;4310;51.054;6.994;2022-12-07T00:53:02;58.90;;;52.62;;
8544;SDS011;4310;51.054;6.994;2022-12-07T00:54:05;55.85;;;50.15;;
8544;SDS011;4310;51.054;6.994;2022-12-07T00:55:09;52.60;;;46.40;;
8544;SDS011;4310;51.054;6.994;2022-12-07T00:56:14;50.75;;;43.10;;
8544;SDS011;4310;51.054;6.994;2022-12-07T00:57:18;53.35;;;47.73;;
8544;SDS011;4310;51.054;6.994;2022-12-07T00:58:21;57.55;;;51.75;;
8544;SDS011;4310;51.054;6.994;2022-12-07T00:59:25;52.53;;;45.33;;
8544;SDS011;4310;51.054;6.994;2022-12-07T01:01:41;53.23;;;47.78;;
8544;SDS011;4310;51.054;6.994;2022-12-07T01:02:45;52.67;;;47.13;;
8544;SDS011;4310;51.054;6.994;2022-12-07T01:03:48;51.50;;;45.95;;
8544;SDS011;4310;51.054;6.994;2022-12-07T01:04:52;48.73;;;43.58;;
8544;SDS011;4310;51.054;6.994;2022-12-07T01:05:56;49.75;;;44.53;;
8544;SDS011;4310;51.054;6.994;2022-12-07T01:07:02;52.70;;;47.17;;
8544;SDS011;4310;51.054;6.994;2022-12-07T01:08:06;47.43;;;42.62;;
8544;SDS011;4310;51.054;6.994;2022-12-07T01:09:10;47.95;;;42.03;;
8544;SDS011;4310;51.054;6.994;2022-12-07T01:10:14;46.33;;;41.58;;
8544;SDS011;4310;51.054;6.994;2022-12-07T01:11:18;50.03;;;44.83;;
8544;SDS011;4310;51.054;6.994;2022-12-07T01:12:22;53.87;;;48.43;;
8544;SDS011;4310;51.054;6.994;2022-12-07T01:13:25;50.83;;;45.65;;
8544;SDS011;4310;51.054;6.994;2022-12-07T01:14:33;54.27;;;48.78;;
8544;SDS011;4310;51.054;6.994;2022-12-07T01:16:50;50.83;;;45.60;;
8544;SDS011;4310;51.054;6.994;2022-12-07T01:17:54;49.27;;;43.92;;
8544;SDS011;4310;51.054;6.994;2022-12-07T01:18:58;48.92;;;44.00;;
8544;SDS011;4310;51.054;6.994;2022-12-07T01:20:02;48.35;;;43.52;;
8544;SDS011;4310;51.054;6.994;2022-12-07T01:21:07;52.17;;;47.10;;
8544;SDS011;4310;51.054;6.994;2022-12-07T01:22:11;47.15;;;42.00;;
8544;SDS011;4310;51.054;6.994;2022-12-07T01:23:15;46.53;;;41.53;;
8544;SDS011;4310;51.054;6.994;2022-12-07T01:24:19;50.50;;;45.30;;
8544;SDS011;4310;51.054;6.994;2022-12-07T01:25:23;50.38;;;45.30;;
8544;SDS011;4310;51.054;6.994;2022-12-07T01:26:27;50.67;;;45.52;;
8544;SDS011;4310;51.054;6.994;2022-12-07T01:27:30;50.28;;;45.00;;
8544;SDS011;4310;51.054;6.994;2022-12-07T01:28:34;50.98;;;45.65;;
8544;SDS011;4310;51.054;6.994;2022-12-07T01:29:38;47.73;;;42.60;;
8544;SDS011;4310;51.054;6.994;2022-12-07T01:30:42;50.50;;;45.20;;
8544;SDS011;4310;51.054;6.994;2022-12-07T01:31:47;49.73;;;44.35;;
8544;SDS011;4310;51.054;6.994;2022-12-07T01:32:51;50.75;;;45.60;;
8544;SDS011;4310;51.054;6.994;2022-12-07T01:33:55;51.02;;;45.73;;
8544;SDS011;4310;51.054;6.994;2022-12-07T01:34:59;51.63;;;46.15;;
8544;SDS011;4310;51.054;6.994;2022-12-07T01:37:24;49.65;;;44.65;;
8544;SDS011;4310;51.054;6.994;2022-12-07T01:38:44;48.15;;;43.23;;
8544;SDS011;4310;51.054;6.994;2022-12-07T01:39:48;47.25;;;40.85;;
8544;SDS011;4310;51.054;6.994;2022-12-07T01:40:56;47.33;;;41.30;;
8544;SDS011;4310;51.054;6.994;2022-12-07T01:41:59;49.00;;;42.53;;
8544;SDS011;4310;51.054;6.994;2022-12-07T01:43:04;52.08;;;46.13;;
8544;SDS011;4310;51.054;6.994;2022-12-07T01:44:14;51.80;;;46.28;;
8544;SDS011;4310;51.054;6.994;2022-12-07T01:47:55;51.37;;;44.95;;
8544;SDS011;4310;51.054;6.994;2022-12-07T01:48:59;50.00;;;43.30;;
8544;SDS011;4310;51.054;6.994;2022-12-07T01:50:04;51.50;;;44.35;;
8544;SDS011;4310;51.054;6.994;2022-12-07T01:51:09;50.83;;;45.10;;
8544;SDS011;4310;51.054;6.994;2022-12-07T01:52:14;49.13;;;43.78;;
8544;SDS011;4310;51.054;6.994;2022-12-07T01:53:19;51.92;;;44.88;;
8544;SDS011;4310;51.054;6.994;2022-12-07T01:54:24;52.33;;;45.28;;
8544;SDS011;4310;51.054;6.994;2022-12-07T01:55:28;51.10;;;44.05;;
8544;SDS011;4310;51.054;6.994;2022-12-07T01:56:33;51.42;;;45.55;;
8544;SDS011;4310;51.054;6.994;2022-12-07T01:57:37;53.58;;;45.35;;
8544;SDS011;4310;51.054;6.994;2022-12-07T01:58:41;50.47;;;43.60;;
8544;SDS011;4310;51.054;6.994;2022-12-07T01:59:49;51.45;;;43.70;;
8544;SDS011;4310;51.054;6.994;2022-12-07T02:00:54;51.85;;;43.73;;
8544;SDS011;4310;51.054;6.994;2022-12-07T02:03:11;52.70;;;44.70;;
8544;SDS011;4310;51.054;6.994;2022-12-07T02:04:14;51.68;;;44.67;;
8544;SDS011;4310;51.054;6.994;2022-12-07T02:05:19;50.83;;;44.05;;
8544;SDS011;4310;51.054;6.994;2022-12-07T02:06:23;52.03;;;45.05;;
8544;SDS011;4310;51.054;6.994;2022-12-07T02:07:28;51.95;;;44.55;;
8544;SDS011;4310;51.054;6.994;2022-12-07T02:08:43;55.78;;;45.83;;
8544;SDS011;4310;51.054;6.994;2022-12-07T02:10:59;50.05;;;44.53;;
8544;SDS011;4310;51.054;6.994;2022-12-07T02:12:03;54.48;;;45.85;;
8544;SDS011;4310;51.054;6.994;2022-12-07T02:13:09;51.97;;;46.20;;
8544;SDS011;4310;51.054;6.994;2022-12-07T02:14:13;52.78;;;45.88;;
8544;SDS011;4310;51.054;6.994;2022-12-07T02:15:17;56.30;;;45.70;;
8544;SDS011;4310;51.054;6.994;2022-12-07T02:16:29;52.93;;;46.98;;
8544;SDS011;4310;51.054;6.994;2022-12-07T02:17:35;56.08;;;45.83;;
8544;SDS011;4310;51.054;6.994;2022-12-07T02:21:26;54.03;;;45.08;;
8544;SDS011;4310;51.054;6.994;2022-12-07T02:22:36;53.60;;;45.35;;
8544;SDS011;4310;51.054;6.994;2022-12-07T02:25:04;57.30;;;46.20;;
8544;SDS011;4310;51.054;6.994;2022-12-07T02:26:18;53.02;;;46.30;;
8544;SDS011;4310;51.054;6.994;2022-12-07T02:28:54;57.80;;;47.97;;
8544;SDS011;4310;51.054;6.994;2022-12-07T02:30:00;54.88;;;47.33;;
8544;SDS011;4310;51.054;6.994;2022-12-07T02:31:14;55.33;;;47.35;;
8544;SDS011;4310;51.054;6.994;2022-12-07T02:32:21;54.13;;;48.23;;
8544;SDS011;4310;51.054;6.994;2022-12-07T02:33:24;54.93;;;46.28;;
8544;SDS011;4310;51.054;6.994;2022-12-07T02:34:31;57.03;;;47.33;;
8544;SDS011;4310;51.054;6.994;2022-12-07T02:35:39;56.20;;;46.50;;
8544;SDS011;4310;51.054;6.994;2022-12-07T02:36:42;55.60;;;47.00;;
8544;SDS011;4310;51.054;6.994;2022-12-07T02:37:49;53.35;;;46.02;;
8544;SDS011;4310;51.054;6.994;2022-12-07T02:38:54;56.48;;;48.60;;
8544;SDS011;4310;51.054;6.994;2022-12-07T02:39:59;56.58;;;47.10;;
8544;SDS011;4310;51.054;6.994;2022-12-07T02:42:17;54.27;;;45.23;;
8544;SDS011;4310;51.054;6.994;2022-12-07T02:43:23;54.93;;;46.08;;
8544;SDS011;4310;51.054;6.994;2022-12-07T02:44:27;54.15;;;47.08;;
8544;SDS011;4310;51.054;6.994;2022-12-07T02:45:31;55.67;;;46.33;;
8544;SDS011;4310;51.054;6.994;2022-12-07T02:46:38;54.88;;;46.98;;
8544;SDS011;4310;51.054;6.994;2022-12-07T02:48:53;59.08;;;47.83;;
8544;SDS011;4310;51.054;6.994;2022-12-07T02:49:58;58.83;;;49.10;;
8544;SDS011;4310;51.054;6.994;2022-12-07T02:51:01;58.08;;;48.50;;
8544;SDS011;4310;51.054;6.994;2022-12-07T02:52:05;56.28;;;47.78;;
8544;SDS011;4310;51.054;6.994;2022-12-07T02:53:28;55.40;;;47.38;;
8544;SDS011;4310;51.054;6.994;2022-12-07T02:55:43;58.75;;;48.98;;
8544;SDS011;4310;51.054;6.994;2022-12-07T02:56:48;56.53;;;48.48;;
8544;SDS011;4310;51.054;6.994;2022-12-07T02:59:13;61.63;;;50.20;;
8544;SDS011;4310;51.054;6.994;2022-12-07T03:01:30;57.08;;;48.83;;
8544;SDS011;4310;51.054;6.994;2022-12-07T03:02:40;58.13;;;49.93;;
8544;SDS011;4310;51.054;6.994;2022-12-07T03:03:45;57.43;;;50.38;;
8544;SDS011;4310;51.054;6.994;2022-12-07T03:04:51;58.38;;;50.70;;
8544;SDS011;4310;51.054;6.994;2022-12-07T03:06:00;57.65;;;50.70;;
8544;SDS011;4310;51.054;6.994;2022-12-07T03:07:05;58.45;;;50.95;;
8544;SDS011;4310;51.054;6.994;2022-12-07T03:08:13;57.93;;;51.70;;
8544;SDS011;4310;51.054;6.994;2022-12-07T03:09:19;61.33;;;51.65;;
8544;SDS011;4310;51.054;6.994;2022-12-07T03:10:24;62.78;;;53.05;;
8544;SDS011;4310;51.054;6.994;2022-12-07T03:11:29;63.78;;;53.25;;
8544;SDS011;4310;51.054;6.994;2022-12-07T03:12:37;60.12;;;52.20;;
8544;SDS011;4310;51.054;6.994;2022-12-07T03:13:41;62.13;;;55.35;;
8544;SDS011;4310;51.054;6.994;2022-12-07T03:15:58;63.25;;;52.33;;
8544;SDS011;4310;51.054;6.994;2022-12-07T03:18:16;60.73;;;50.78;;
8544;SDS011;4310;51.054;6.994;2022-12-07T03:19:20;55.92;;;49.88;;
8544;SDS011;4310;51.054;6.994;2022-12-07T03:20:25;57.53;;;51.13;;
8544;SDS011;4310;51.054;6.994;2022-12-07T03:21:31;59.15;;;51.28;;
8544;SDS011;4310;51.054;6.994;2022-12-07T03:22:35;56.28;;;50.12;;
8544;SDS011;4310;51.054;6.994;2022-12-07T03:23:42;59.83;;;50.38;;
8544;SDS011;4310;51.054;6.994;2022-12-07T03:24:48;58.58;;;51.25;;
8544;SDS011;4310;51.054;6.994;2022-12-07T03:25:55;56.90;;;50.63;;
8544;SDS011;4310;51.054;6.994;2022-12-07T03:28:11;60.05;;;49.85;;
8544;SDS011;4310;51.054;6.994;2022-12-07T03:29:18;61.37;;;50.17;;
8544;SDS011;4310;51.054;6.994;2022-12-07T03:30:23;62.38;;;51.68;;
8544;SDS011;4310;51.054;6.994;2022-12-07T03:31:28;60.95;;;51.28;;
8544;SDS011;4310;51.054;6.994;2022-12-07T03:32:34;58.77;;;49.80;;
8544;SDS011;4310;51.054;6.994;2022-12-07T03:33:39;60.35;;;51.73;;
8544;SDS011;4310;51.054;6.994;2022-12-07T03:34:44;62.20;;;51.55;;
8544;SDS011;4310;51.054;6.994;2022-12-07T03:35:49;60.30;;;50.63;;
8544;SDS011;4310;51.054;6.994;2022-12-07T03:36:58;58.92;;;50.83;;
8544;SDS011;4310;51.054;6.994;2022-12-07T03:39:16;60.00;;;50.50;;
8544;SDS011;4310;51.054;6.994;2022-12-07T03:40:22;57.08;;;49.60;;
8544;SDS011;4310;51.054;6.994;2022-12-07T03:41:26;59.35;;;49.05;;
8544;SDS011;4310;51.054;6.994;2022-12-07T03:42:30;60.25;;;48.80;;
8544;SDS011;4310;51.054;6.994;2022-12-07T03:43:34;58.30;;;48.15;;
8544;SDS011;4310;51.054;6.994;2022-12-07T03:44:39;57.27;;;47.90;;
8544;SDS011;4310;51.054;6.994;2022-12-07T03:45:44;58.92;;;49.03;;
8544;SDS011;4310;51.054;6.994;2022-12-07T03:46:50;60.10;;;49.53;;
8544;SDS011;4310;51.054;6.994;2022-12-07T03:48:02;55.12;;;47.62;;
8544;SDS011;4310;51.054;6.994;2022-12-07T03:49:00;56.60;;;49.10;;
8544;SDS011;4310;51.054;6.994;2022-12-07T03:50:06;58.80;;;49.98;;
8544;SDS011;4310;51.054;6.994;2022-12-07T03:51:13;60.03;;;51.25;;
8544;SDS011;4310;51.054;6.994;2022-12-07T03:52:17;58.58;;;51.65;;
8544;SDS011;4310;51.054;6.994;2022-12-07T03:53:22;62.80;;;54.67;;
8544;SDS011;4310;51.054;6.994;2022-12-07T03:54:28;62.95;;;55.40;;
8544;SDS011;4310;51.054;6.994;2022-12-07T03:55:32;62.75;;;55.95;;
8544;SDS011;4310;51.054;6.994;2022-12-07T03:57:49;69.32;;;61.60;;
8544;SDS011;4310;51.054;6.994;2022-12-07T03:58:54;70.15;;;61.95;;
8544;SDS011;4310;51.054;6.994;2022-12-07T03:59:58;69.85;;;62.17;;
8544;SDS011;4310;51.054;6.994;2022-12-07T04:01:11;72.03;;;64.27;;
8544;SDS011;4310;51.054;6.994;2022-12-07T04:02:15;75.20;;;67.10;;
8544;SDS011;4310;51.054;6.994;2022-12-07T04:03:19;75.40;;;67.32;;
8544;SDS011;4310;51.054;6.994;2022-12-07T04:05:34;74.00;;;66.28;;
8544;SDS011;4310;51.054;6.994;2022-12-07T04:06:39;75.97;;;67.95;;
8544;SDS011;4310;51.054;6.994;2022-12-07T04:08:54;78.85;;;70.03;;
8544;SDS011;4310;51.054;6.994;2022-12-07T04:09:58;76.10;;;67.12;;
8544;SDS011;4310;51.054;6.994;2022-12-07T04:11:02;76.87;;;68.17;;
8544;SDS011;4310;51.054;6.994;2022-12-07T04:12:06;77.30;;;69.20;;
8544;SDS011;4310;51.054;6.994;2022-12-07T04:13:09;76.47;;;68.30;;
8544;SDS011;4310;51.054;6.994;2022-12-07T04:14:13;76.05;;;68.00;;
8544;SDS011;4310;51.054;6.994;2022-12-07T04:15:27;76.57;;;68.37;;
8544;SDS011;4310;51.054;6.994;2022-12-07T04:17:43;78.45;;;68.55;;
8544;SDS011;4310;51.054;6.994;2022-12-07T04:19:58;79.37;;;69.60;;
8544;SDS011;4310;51.054;6.994;2022-12-07T04:21:02;77.92;;;69.42;;
8544;SDS011;4310;51.054;6.994;2022-12-07T04:22:06;78.57;;;69.50;;
8544;SDS011;4310;51.054;6.994;2022-12-07T04:24:21;77.45;;;69.03;;
8544;SDS011;4310;51.054;6.994;2022-12-07T04:25:25;77.45;;;68.92;;
8544;SDS011;4310;51.054;6.994;2022-12-07T04:26:28;77.00;;;68.70;;
8544;SDS011;4310;51.054;6.994;2022-12-07T04:27:32;76.72;;;68.35;;
8544;SDS011;4310;51.054;6.994;2022-12-07T04:29:48;80.65;;;70.05;;
8544;SDS011;4310;51.054;6.994;2022-12-07T04:30:52;84.28;;;69.47;;
8544;SDS011;4310;51.054;6.994;2022-12-07T04:31:55;82.57;;;70.32;;
8544;SDS011;4310;51.054;6.994;2022-12-07T04:32:59;77.08;;;66.02;;
8544;SDS011;4310;51.054;6.994;2022-12-07T04:34:03;75.35;;;66.45;;
8544;SDS011;4310;51.054;6.994;2022-12-07T04:35:08;79.90;;;67.17;;
8544;SDS011;4310;51.054;6.994;2022-12-07T04:36:11;81.90;;;67.17;;
8544;SDS011;4310;51.054;6.994;2022-12-07T04:37:15;86.25;;;69.30;;
8544;SDS011;4310;51.054;6.994;2022-12-07T04:38:19;76.02;;;66.30;;
8544;SDS011;4310;51.054;6.994;2022-12-07T04:39:24;75.87;;;65.78;;
8544;SDS011;4310;51.054;6.994;2022-12-07T04:40:28;77.75;;;65.87;;
8544;SDS011;4310;51.054;6.994;2022-12-07T04:41:32;79.92;;;66.22;;
8544;SDS011;4310;51.054;6.994;2022-12-07T04:42:36;79.62;;;64.50;;
8544;SDS011;4310;51.054;6.994;2022-12-07T04:43:39;75.47;;;66.45;;
8544;SDS011;4310;51.054;6.994;2022-12-07T04:45:55;75.42;;;65.92;;
8544;SDS011;4310;51.054;6.994;2022-12-07T04:46:58;82.08;;;65.72;;
8544;SDS011;4310;51.054;6.994;2022-12-07T04:48:02;77.87;;;64.77;;
8544;SDS011;4310;51.054;6.994;2022-12-07T04:49:06;74.25;;;63.58;;
8544;SDS011;4310;51.054;6.994;2022-12-07T04:50:10;71.95;;;62.58;;
8544;SDS011;4310;51.054;6.994;2022-12-07T04:52:25;72.10;;;61.18;;
8544;SDS011;4310;51.054;6.994;2022-12-07T04:53:41;73.90;;;63.23;;
8544;SDS011;4310;51.054;6.994;2022-12-07T04:54:45;71.10;;;63.30;;
8544;SDS011;4310;51.054;6.994;2022-12-07T04:55:48;73.28;;;63.78;;
8544;SDS011;4310;51.054;6.994;2022-12-07T04:56:52;72.35;;;62.90;;
8544;SDS011;4310;51.054;6.994;2022-12-07T04:57:56;71.67;;;62.10;;
8544;SDS011;4310;51.054;6.994;2022-12-07T05:00:11;73.12;;;63.13;;
8544;SDS011;4310;51.054;6.994;2022-12-07T05:01:15;75.47;;;64.37;;
8544;SDS011;4310;51.054;6.994;2022-12-07T05:02:19;69.55;;;61.00;;
8544;SDS011;4310;51.054;6.994;2022-12-07T05:03:23;72.12;;;63.17;;
8544;SDS011;4310;51.054;6.994;2022-12-07T05:04:27;70.65;;;61.95;;
8544;SDS011;4310;51.054;6.994;2022-12-07T05:05:31;78.95;;;64.45;;
8544;SDS011;4310;51.054;6.994;2022-12-07T05:06:34;73.02;;;63.42;;
8544;SDS011;4310;51.054;6.994;2022-12-07T05:07:38;73.28;;;62.50;;
8544;SDS011;4310;51.054;6.994;2022-12-07T05:08:42;72.08;;;64.15;;
8544;SDS011;4310;51.054;6.994;2022-12-07T05:10:57;71.92;;;62.50;;
8544;SDS011;4310;51.054;6.994;2022-12-07T05:12:01;73.95;;;62.23;;
8544;SDS011;4310;51.054;6.994;2022-12-07T05:13:05;78.42;;;63.45;;
8544;SDS011;4310;51.054;6.994;2022-12-07T05:14:10;421.35;;;101.87;;
8544;SDS011;4310;51.054;6.994;2022-12-07T05:15:15;94.67;;;64.80;;
8544;SDS011;4310;51.054;6.994;2022-12-07T05:16:18;210.38;;;78.33;;
8544;SDS011;4310;51.054;6.994;2022-12-07T05:17:22;325.55;;;93.07;;
8544;SDS011;4310;51.054;6.994;2022-12-07T05:18:26;75.10;;;62.95;;
8544;SDS011;4310;51.054;6.994;2022-12-07T05:19:30;73.40;;;61.58;;
8544;SDS011;4310;51.054;6.994;2022-12-07T05:20:34;75.12;;;62.75;;
8544;SDS011;4310;51.054;6.994;2022-12-07T05:21:38;73.00;;;60.88;;
8544;SDS011;4310;51.054;6.994;2022-12-07T05:23:53;73.20;;;61.57;;
8544;SDS011;4310;51.054;6.994;2022-12-07T05:24:57;73.70;;;61.02;;
8544;SDS011;4310;51.054;6.994;2022-12-07T05:26:00;81.47;;;62.03;;
8544;SDS011;4310;51.054;6.994;2022-12-07T05:28:16;77.63;;;62.10;;
8544;SDS011;4310;51.054;6.994;2022-12-07T05:29:19;78.55;;;62.60;;
8544;SDS011;4310;51.054;6.994;2022-12-07T05:30:24;80.05;;;62.08;;
8544;SDS011;4310;51.054;6.994;2022-12-07T05:31:28;72.40;;;61.20;;
8544;SDS011;4310;51.054;6.994;2022-12-07T05:32:31;79.65;;;61.68;;
8544;SDS011;4310;51.054;6.994;2022-12-07T05:33:35;76.07;;;60.90;;
8544;SDS011;4310;51.054;6.994;2022-12-07T05:34:39;70.42;;;59.08;;
8544;SDS011;4310;51.054;6.994;2022-12-07T05:35:43;70.75;;;59.10;;
8544;SDS011;4310;51.054;6.994;2022-12-07T05:36:46;64.77;;;57.40;;
8544;SDS011;4310;51.054;6.994;2022-12-07T05:37:50;69.25;;;57.25;;
8544;SDS011;4310;51.054;6.994;2022-12-07T05:38:54;68.42;;;57.67;;
8544;SDS011;4310;51.054;6.994;2022-12-07T05:39:58;68.15;;;54.30;;
8544;SDS011;4310;51.054;6.994;2022-12-07T05:42:13;65.05;;;55.60;;
8544;SDS011;4310;51.054;6.994;2022-12-07T05:44:28;68.12;;;57.13;;
8544;SDS011;4310;51.054;6.994;2022-12-07T05:45:32;71.75;;;58.20;;
8544;SDS011;4310;51.054;6.994;2022-12-07T05:46:36;69.80;;;56.75;;
8544;SDS011;4310;51.054;6.994;2022-12-07T05:47:40;72.92;;;58.90;;
8544;SDS011;4310;51.054;6.994;2022-12-07T05:48:43;68.60;;;57.78;;
8544;SDS011;4310;51.054;6.994;2022-12-07T05:49:47;72.27;;;56.77;;
8544;SDS011;4310;51.054;6.994;2022-12-07T05:50:51;71.70;;;60.30;;
8544;SDS011;4310;51.054;6.994;2022-12-07T05:51:54;69.15;;;57.08;;
8544;SDS011;4310;51.054;6.994;2022-12-07T05:52:58;71.35;;;58.45;;
8544;SDS011;4310;51.054;6.994;2022-12-07T05:54:02;70.52;;;60.15;;
8544;SDS011;4310;51.054;6.994;2022-12-07T05:55:07;71.92;;;58.90;;
8544;SDS011;4310;51.054;6.994;2022-12-07T05:56:10;69.67;;;59.15;;
8544;SDS011;4310;51.054;6.994;2022-12-07T05:57:14;70.50;;;58.55;;
8544;SDS011;4310;51.054;6.994;2022-12-07T05:58:18;71.33;;;58.25;;
8544;SDS011;4310;51.054;6.994;2022-12-07T05:59:39;75.83;;;58.73;;
8544;SDS011;4310;51.054;6.994;2022-12-07T06:00:43;71.90;;;59.55;;
8544;SDS011;4310;51.054;6.994;2022-12-07T06:01:47;78.30;;;62.43;;
8544;SDS011;4310;51.054;6.994;2022-12-07T06:02:51;70.55;;;59.38;;
8544;SDS011;4310;51.054;6.994;2022-12-07T06:03:54;76.33;;;59.60;;
8544;SDS011;4310;51.054;6.994;2022-12-07T06:04:58;76.12;;;59.13;;
8544;SDS011;4310;51.054;6.994;2022-12-07T06:06:02;75.60;;;59.93;;
8544;SDS011;4310;51.054;6.994;2022-12-07T06:07:06;70.62;;;57.73;;
8544;SDS011;4310;51.054;6.994;2022-12-07T06:08:09;78.73;;;59.40;;
8544;SDS011;4310;51.054;6.994;2022-12-07T06:10:25;74.05;;;58.68;;
8544;SDS011;4310;51.054;6.994;2022-12-07T06:11:28;75.65;;;59.18;;
8544;SDS011;4310;51.054;6.994;2022-12-07T06:12:50;72.58;;;59.53;;
8544;SDS011;4310;51.054;6.994;2022-12-07T06:13:54;79.58;;;61.02;;
8544;SDS011;4310;51.054;6.994;2022-12-07T06:14:57;78.07;;;60.65;;
8544;SDS011;4310;51.054;6.994;2022-12-07T06:16:10;80.07;;;61.28;;
8544;SDS011;4310;51.054;6.994;2022-12-07T06:17:14;81.53;;;61.30;;
8544;SDS011;4310;51.054;6.994;2022-12-07T06:18:18;74.53;;;60.30;;
8544;SDS011;4310;51.054;6.994;2022-12-07T06:19:21;82.08;;;60.40;;
8544;SDS011;4310;51.054;6.994;2022-12-07T06:20:25;76.33;;;60.67;;
8544;SDS011;4310;51.054;6.994;2022-12-07T06:21:29;74.82;;;58.65;;
8544;SDS011;4310;51.054;6.994;2022-12-07T06:22:33;74.30;;;59.38;;
8544;SDS011;4310;51.054;6.994;2022-12-07T06:23:37;76.95;;;60.40;;
8544;SDS011;4310;51.054;6.994;2022-12-07T06:24:41;74.87;;;62.17;;
8544;SDS011;4310;51.054;6.994;2022-12-07T06:26:57;80.07;;;62.62;;
8544;SDS011;4310;51.054;6.994;2022-12-07T06:28:01;83.82;;;61.23;;
8544;SDS011;4310;51.054;6.994;2022-12-07T06:30:16;75.43;;;62.67;;
8544;SDS011;4310;51.054;6.994;2022-12-07T06:31:20;74.95;;;60.80;;
8544;SDS011;4310;51.054;6.994;2022-12-07T06:32:24;78.00;;;61.18;;
8544;SDS011;4310;51.054;6.994;2022-12-07T06:33:27;76.23;;;60.90;;
8544;SDS011;4310;51.054;6.994;2022-12-07T06:34:31;80.83;;;62.27;;
8544;SDS011;4310;51.054;6.994;2022-12-07T06:35:35;83.07;;;62.27;;
8544;SDS011;4310;51.054;6.994;2022-12-07T06:36:39;79.40;;;62.27;;
8544;SDS011;4310;51.054;6.994;2022-12-07T06:37:43;84.00;;;62.08;;
8544;SDS011;4310;51.054;6.994;2022-12-07T06:39:58;84.13;;;64.22;;
8544;SDS011;4310;51.054;6.994;2022-12-07T06:41:01;84.28;;;65.08;;
8544;SDS011;4310;51.054;6.994;2022-12-07T06:42:05;138.92;;;68.22;;
8544;SDS011;4310;51.054;6.994;2022-12-07T06:43:09;80.12;;;65.17;;
8544;SDS011;4310;51.054;6.994;2022-12-07T06:44:13;74.80;;;61.92;;
8544;SDS011;4310;51.054;6.994;2022-12-07T06:45:16;78.33;;;62.85;;
8544;SDS011;4310;51.054;6.994;2022-12-07T06:46:20;80.80;;;63.25;;
8544;SDS011;4310;51.054;6.994;2022-12-07T06:47:24;84.17;;;66.90;;
8544;SDS011;4310;51.054;6.994;2022-12-07T06:48:27;103.12;;;70.15;;
8544;SDS011;4310;51.054;6.994;2022-12-07T06:49:31;84.60;;;71.65;;
8544;SDS011;4310;51.054;6.994;2022-12-07T06:50:35;92.30;;;78.07;;
8544;SDS011;4310;51.054;6.994;2022-12-07T06:51:39;81.85;;;73.45;;
8544;SDS011;4310;51.054;6.994;2022-12-07T06:52:43;84.47;;;75.57;;
8544;SDS011;4310;51.054;6.994;2022-12-07T06:53:47;83.10;;;74.47;;
8544;SDS011;4310;51.054;6.994;2022-12-07T06:54:51;83.47;;;74.67;;
8544;SDS011;4310;51.054;6.994;2022-12-07T06:55:54;85.07;;;76.37;;
8544;SDS011;4310;51.054;6.994;2022-12-07T06:56:58;82.40;;;73.87;;
8544;SDS011;4310;51.054;6.994;2022-12-07T06:59:13;87.78;;;78.35;;
8544;SDS011;4310;51.054;6.994;2022-12-07T07:00:17;91.35;;;79.72;;
8544;SDS011;4310;51.054;6.994;2022-12-07T07:01:21;88.33;;;79.05;;
8544;SDS011;4310;51.054;6.994;2022-12-07T07:02:25;97.15;;;82.45;;
8544;SDS011;4310;51.054;6.994;2022-12-07T07:03:29;90.55;;;80.95;;
8544;SDS011;4310;51.054;6.994;2022-12-07T07:04:33;88.97;;;80.20;;
8544;SDS011;4310;51.054;6.994;2022-12-07T07:05:36;93.90;;;84.30;;
8544;SDS011;4310;51.054;6.994;2022-12-07T07:06:40;95.65;;;85.95;;
8544;SDS011;4310;51.054;6.994;2022-12-07T07:07:44;97.95;;;87.30;;
8544;SDS011;4310;51.054;6.994;2022-12-07T07:08:47;96.92;;;87.20;;
8544;SDS011;4310;51.054;6.994;2022-12-07T07:09:51;100.80;;;89.85;;
8544;SDS011;4310;51.054;6.994;2022-12-07T07:10:55;98.72;;;88.60;;
8544;SDS011;4310;51.054;6.994;2022-12-07T07:11:58;104.78;;;89.00;;
8544;SDS011;4310;51.054;6.994;2022-12-07T07:13:03;98.90;;;88.58;;
8544;SDS011;4310;51.054;6.994;2022-12-07T07:15:18;95.05;;;85.45;;
8544;SDS011;4310;51.054;6.994;2022-12-07T07:16:22;99.35;;;88.82;;
8544;SDS011;4310;51.054;6.994;2022-12-07T07:17:26;99.25;;;89.32;;
8544;SDS011;4310;51.054;6.994;2022-12-07T07:18:29;97.50;;;87.90;;
8544;SDS011;4310;51.054;6.994;2022-12-07T07:19:33;102.70;;;92.60;;
8544;SDS011;4310;51.054;6.994;2022-12-07T07:20:37;104.23;;;93.42;;
8544;SDS011;4310;51.054;6.994;2022-12-07T07:21:41;102.25;;;92.40;;
8544;SDS011;4310;51.054;6.994;2022-12-07T07:22:44;105.60;;;95.17;;
8544;SDS011;4310;51.054;6.994;2022-12-07T07:23:48;102.30;;;92.30;;
8544;SDS011;4310;51.054;6.994;2022-12-07T07:24:52;102.22;;;92.33;;
8544;SDS011;4310;51.054;6.994;2022-12-07T07:27:07;101.58;;;91.40;;
8544;SDS011;4310;51.054;6.994;2022-12-07T07:28:11;101.62;;;92.27;;